• Join FlightAware (Why Join?)
  • Login
  • US Flag 
11:57PM EDT


 

Airport Tracker/Info


-or-


 

Live Flight TrackerFlight Track Log ✈ N53FJ ✈ 20-Apr-2013 ✈ KAUS - KMAF

Flight Track Log - Related Links

Times and Time Zones

All times are in EDT time to prevent confusion due to time zone crossing. See the N53FJ flight status page for this flight to view local times or setup timezone preferences in your user account.

Time Position Orientation Groundspeed Altitude Reporting Facility
EDT Latitude Longitude Course Direction KTS MPH feet Rate Location/Type
07:36PM 30.1078 -97.7089 288° West 256 295 6,700  Level Houston Center
07:37PM 30.1414 -97.7839 297° West 266 306 10,500 3,420 Climbing Houston Center
07:39PM 30.1933 -97.8731 304° West 287 330 13,800 2,820 Climbing Houston Center
07:40PM 30.2483 -97.9553 308° West 317 365 16,400 2,580 Climbing Houston Center
07:41PM 30.2914 -98.0547 297° West 322 371 19,100 2,340 Climbing Houston Center
07:42PM 30.3250 -98.1339 296° West 324 373 21,300 2,580 Climbing Houston Center
07:43PM 30.3733 -98.2497 296° West 336 387 24,400 2,760 Climbing Houston Center
07:44PM 30.4136 -98.3469 296° West 334 384 27,000 2,220 Climbing Houston Center
07:45PM 30.4542 -98.4425 296° West 330 380 29,000 1,740 Climbing Houston Center
07:46PM 30.4947 -98.5419 295° West 336 387 30,600 1,440 Climbing Houston Center
07:47PM 30.5386 -98.6481 296° West 357 411 32,000 660 Climbing Houston Center
07:48PM 30.5850 -98.7569 296° West 372 428 32,000  Level Houston Center
07:49PM 30.6294 -98.8669 295° West 375 432 32,000  Level Houston Center
07:50PM 30.6753 -98.9769 296° West 374 430 32,000  Level Houston Center
07:51PM 30.7211 -99.0872 296° West 375 432 32,000  Level Houston Center
07:52PM 30.7706 -99.2092 295° West 376 433 32,000  Level Houston Center
07:53PM 30.8150 -99.3181 295° West 375 432 32,000  Level Houston Center
07:54PM 30.8606 -99.4272 296° West 377 434 32,000  Level Houston Center
07:55PM 30.9019 -99.5353 294° West 372 428 32,000  Level Houston Center
07:56PM 30.9458 -99.6411 296° West 368 423 32,000  Level Houston Center
07:57PM 30.9897 -99.7503 295° West 375 432 32,000  Level Houston Center
07:58PM 31.0333 -99.8586 295° West 373 429 32,000  Level Houston Center
07:59PM 31.0761 -99.9628 296° West 362 417 32,000  Level Houston Center
08:00PM 31.1281 -100.0919 295° West 368 423 32,000  Level Houston Center
08:01PM 31.1689 -100.1919 296° West 350 403 32,000  Level Houston Center
08:02PM 31.2122 -100.3006 295° West 365 420 32,000  Level Houston Center
08:03PM 31.2544 -100.4075 295° West 364 419 32,000  Level Houston Center
08:04PM 31.2803 -100.4736 295° West 360 414 32,000 -300 Level Fort Worth Center
08:05PM 31.3236 -100.5794 296° West 360 414 31,600 -1,020 Descending Fort Worth Center
08:06PM 31.3647 -100.6856 294° West 360 414 30,000 -1,680 Descending Fort Worth Center
08:07PM 31.4019 -100.7792 295° West 360 414 28,300 -1,800 Descending Fort Worth Center
08:08PM 31.4450 -100.8856 295° West 360 414 26,400 -1,920 Descending Fort Worth Center
08:09PM 31.4881 -100.9894 296° West 360 414 24,500 -1,860 Descending Fort Worth Center
08:10PM 31.5292 -101.0886 296° West 355 409 22,700 -1,800 Descending Fort Worth Center
08:11PM 31.5678 -101.1925 294° West 343 395 20,900 -1,800 Descending Fort Worth Center
08:12PM 31.6064 -101.2917 295° West 337 388 19,100 -1,800 Descending Fort Worth Center
08:13PM 31.6472 -101.3886 296° West 337 388 17,300 -1,800 Descending Fort Worth Center
08:14PM 31.6858 -101.4925 294° West 337 388 15,600 -1,740 Descending Fort Worth Center
08:15PM 31.7242 -101.5944 294° West 337 388 13,900 -1,740 Descending Fort Worth Center
08:16PM 31.7606 -101.6864 295° West 331 381 12,200 -1,620 Descending Fort Worth Center
08:17PM 31.8019 -101.7642 302° West 305 351 10,700 -1,440 Descending Fort Worth Center
08:18PM 31.8517 -101.8350 310° West 292 336 9,400 -1,260 Descending Fort Worth Center
08:19PM 31.8989 -101.9106 306° West 287 330 8,200 -1,200 Descending Fort Worth Center
08:20PM 31.9422 -101.9814 306° West 279 321 7,000 -1,020 Descending Fort Worth Center
08:21PM 31.9753 -102.0539 298° West 264 304 6,200 -840 Descending Fort Worth Center
08:22PM 32.0039 -102.1217 296° West 248 285 5,400 -720 Descending Fort Worth Center
08:23PM 32.0269 -102.1792 295° West 220 253 4,800 -900 Descending Fort Worth Center
08:24PM 32.0006 -102.2122 227° Southwest 150 173 3,700 -900 Descending Fort Worth Center
08:25PM 31.9672 -102.2078 174° South 111 128 3,000 -720 Descending Fort Worth Center